createdAt,value
2023-07-07T00:03:07.222Z,6.30
2023-07-07T00:08:12.708Z,6.20
2023-07-07T00:13:17.414Z,6.30
2023-07-07T00:18:29.183Z,7.40
2023-07-07T00:23:34.429Z,7.10
2023-07-07T00:28:37.867Z,6.60
2023-07-07T00:33:41.252Z,9.20
2023-07-07T00:38:44.552Z,8.10
2023-07-07T00:44:20.613Z,7.90
2023-07-07T00:49:25.254Z,6.50
2023-07-07T00:54:34.263Z,8.60
2023-07-07T00:59:41.249Z,7.70
2023-07-07T01:04:50.163Z,8.50
2023-07-07T01:09:54.230Z,9.40
2023-07-07T01:14:57.687Z,5.70
2023-07-07T01:20:09.491Z,8.00
2023-07-07T01:25:48.221Z,6.30
2023-07-07T01:31:00.437Z,7.30
2023-07-07T01:36:04.160Z,7.10
2023-07-07T01:41:24.152Z,7.80
2023-07-07T01:46:52.425Z,6.50
2023-07-07T01:52:11.314Z,6.60
2023-07-07T01:57:16.020Z,7.40
2023-07-07T02:02:19.474Z,9.80
2023-07-07T02:07:22.818Z,8.50
2023-07-07T02:12:26.171Z,8.50
2023-07-07T02:17:30.704Z,9.10
2023-07-07T02:22:34.068Z,8.60
2023-07-07T02:27:37.432Z,6.30
2023-07-07T02:32:41.016Z,9.70
2023-07-07T02:37:44.432Z,9.60
2023-07-07T02:42:48.130Z,10.70
2023-07-07T02:47:51.467Z,7.60
2023-07-07T02:52:54.794Z,8.70
2023-07-07T02:57:59.245Z,8.80
2023-07-07T03:03:02.634Z,6.30
2023-07-07T03:08:06.074Z,6.90
2023-07-07T03:13:09.433Z,8.60
2023-07-07T03:18:15.906Z,8.10
2023-07-07T03:23:19.320Z,7.60
2023-07-07T03:28:22.957Z,7.50
2023-07-07T03:33:26.310Z,6.60
2023-07-07T03:38:29.572Z,6.90
2023-07-07T03:43:39.063Z,6.00
2023-07-07T03:48:43.271Z,5.20
2023-07-07T03:53:47.515Z,8.30
2023-07-07T03:58:50.925Z,5.60
2023-07-07T04:03:54.469Z,7.10
2023-07-07T04:08:57.924Z,6.70
2023-07-07T04:14:01.279Z,7.00
2023-07-07T04:19:04.769Z,5.40
2023-07-07T04:24:08.557Z,5.90
2023-07-07T04:29:11.916Z,6.30
2023-07-07T04:34:16.820Z,6.50
2023-07-07T04:39:20.447Z,5.90
2023-07-07T04:44:23.755Z,6.10
2023-07-07T04:49:27.092Z,9.10
2023-07-07T04:54:30.419Z,5.80
2023-07-07T04:59:34.138Z,6.60
2023-07-07T05:04:37.432Z,7.30
2023-07-07T05:09:42.046Z,6.00
2023-07-07T05:14:45.353Z,5.70
2023-07-07T05:19:48.787Z,5.40
2023-07-07T05:24:52.391Z,6.40
2023-07-07T05:29:55.703Z,4.40
2023-07-07T05:34:59.052Z,5.40
2023-07-07T05:40:02.384Z,6.80
2023-07-07T05:45:06.407Z,5.60
2023-07-07T05:50:10.839Z,5.50
2023-07-07T05:55:29.857Z,6.20
2023-07-07T06:00:35.841Z,5.50
2023-07-07T06:05:39.485Z,6.90
2023-07-07T06:10:43.429Z,7.10
2023-07-07T06:15:46.808Z,5.40
2023-07-07T06:20:54.648Z,6.60
2023-07-07T06:25:58.369Z,5.50
2023-07-07T06:31:02.351Z,4.90
2023-07-07T06:36:06.153Z,5.50
2023-07-07T06:41:14.438Z,5.10
2023-07-07T06:46:20.204Z,6.30
2023-07-07T06:51:23.573Z,7.70
2023-07-07T06:56:26.888Z,5.70
2023-07-07T07:01:30.273Z,6.80
2023-07-07T07:06:33.673Z,4.80
2023-07-07T07:11:37.496Z,6.70
2023-07-07T07:16:41.522Z,6.60
2023-07-07T07:21:44.849Z,6.50
2023-07-07T07:26:48.200Z,5.60
2023-07-07T07:31:51.646Z,6.00
2023-07-07T07:36:57.047Z,5.20
2023-07-07T07:42:00.430Z,5.00
2023-07-07T07:47:06.370Z,6.00
2023-07-07T07:52:09.807Z,6.20
2023-07-07T07:57:13.387Z,5.30
2023-07-07T08:02:16.760Z,4.60
2023-07-07T08:07:20.113Z,4.50
2023-07-07T08:12:25.127Z,4.30
2023-07-07T08:17:28.464Z,4.90
2023-07-07T08:22:31.916Z,5.10
2023-07-07T08:32:41.652Z,4.10
2023-07-07T08:37:45.085Z,8.40
2023-07-07T08:42:48.571Z,5.70
2023-07-07T08:47:51.921Z,4.60
2023-07-07T08:53:19.022Z,5.00
2023-07-07T08:58:44.333Z,4.50
2023-07-07T09:03:52.619Z,3.60
2023-07-07T09:09:10.879Z,4.60
2023-07-07T09:14:16.492Z,4.40
2023-07-07T09:19:34.802Z,4.60
2023-07-07T09:25:08.138Z,4.40
2023-07-07T09:30:35.597Z,4.30
2023-07-07T09:35:46.002Z,4.00
2023-07-07T09:41:15.423Z,5.70
2023-07-07T09:46:28.645Z,4.30
2023-07-07T09:52:05.395Z,4.50
2023-07-07T09:57:28.193Z,5.50
2023-07-07T10:02:32.610Z,4.10
2023-07-07T10:07:42.105Z,5.10
2023-07-07T10:12:47.719Z,4.60
2023-07-07T10:18:08.766Z,4.30
2023-07-07T10:23:16.178Z,4.70
2023-07-07T10:28:21.857Z,3.90
2023-07-07T10:33:25.932Z,4.70
2023-07-07T10:38:32.390Z,3.90
2023-07-07T10:43:39.270Z,3.30
2023-07-07T10:48:45.716Z,4.60
2023-07-07T10:53:58.591Z,6.20
2023-07-07T10:59:37.462Z,3.80
2023-07-07T11:04:58.137Z,4.50
2023-07-07T11:10:01.624Z,3.70
2023-07-07T11:15:41.514Z,4.10
2023-07-07T11:20:45.099Z,3.80
2023-07-07T11:26:01.483Z,4.00
2023-07-07T11:31:31.002Z,4.60
2023-07-07T11:37:16.573Z,4.50
2023-07-07T11:42:43.178Z,4.50
2023-07-07T11:47:59.034Z,4.00
2023-07-07T11:53:05.276Z,4.90
2023-07-07T11:58:34.244Z,4.00
2023-07-07T12:04:01.157Z,4.30
2023-07-07T12:09:08.308Z,5.10
2023-07-07T12:14:57.281Z,3.50
2023-07-07T12:20:27.310Z,3.60
2023-07-07T12:25:34.423Z,4.00
2023-07-07T12:30:45.350Z,4.20
2023-07-07T12:35:54.531Z,5.10
2023-07-07T12:41:02.122Z,5.60
2023-07-07T12:46:31.726Z,5.20
2023-07-07T12:51:38.728Z,4.30
2023-07-07T12:57:20.612Z,3.40
2023-07-07T13:02:25.932Z,4.50
2023-07-07T13:07:32.493Z,3.60
2023-07-07T13:12:39.108Z,4.00
2023-07-07T13:17:43.103Z,4.80
2023-07-07T13:23:03.468Z,4.10
2023-07-07T13:28:12.500Z,4.80
2023-07-07T13:33:20.028Z,5.20
2023-07-07T13:38:29.281Z,5.70
2023-07-07T13:43:41.846Z,4.10
2023-07-07T13:48:50.651Z,4.90
2023-07-07T13:53:55.769Z,4.50
2023-07-07T13:58:59.124Z,4.10
2023-07-07T14:04:07.074Z,3.90
2023-07-07T14:09:39.969Z,3.40
2023-07-07T14:14:44.564Z,4.00
2023-07-07T14:20:08.895Z,4.30
2023-07-07T14:25:17.489Z,4.30
2023-07-07T14:30:25.212Z,5.10
2023-07-07T14:35:34.102Z,4.40
2023-07-07T14:40:47.764Z,4.40
2023-07-07T14:46:17.736Z,4.10
2023-07-07T14:51:28.872Z,4.00
2023-07-07T14:56:34.796Z,4.50
2023-07-07T15:01:39.702Z,4.70
2023-07-07T15:06:52.551Z,3.80
2023-07-07T15:11:56.582Z,3.90
2023-07-07T15:17:00.104Z,4.40
2023-07-07T15:22:04.298Z,4.00
2023-07-07T15:27:15.376Z,4.30
2023-07-07T15:32:18.727Z,4.30
2023-07-07T15:37:22.047Z,4.50
2023-07-07T15:42:26.109Z,4.90
2023-07-07T15:47:29.683Z,3.50
2023-07-07T15:52:33.028Z,4.20
2023-07-07T15:57:36.873Z,4.70
2023-07-07T16:02:40.290Z,4.10
2023-07-07T16:07:44.508Z,4.30
2023-07-07T16:12:47.843Z,4.30
2023-07-07T16:17:51.508Z,4.60
2023-07-07T16:22:58.190Z,4.40
2023-07-07T16:28:03.924Z,4.80
2023-07-07T16:33:07.574Z,4.10
2023-07-07T16:38:13.984Z,3.60
2023-07-07T16:43:17.883Z,4.80
2023-07-07T16:48:21.769Z,5.60
2023-07-07T16:53:26.710Z,3.70
2023-07-07T16:58:30.103Z,3.70
2023-07-07T17:03:33.512Z,4.30
2023-07-07T17:08:37.016Z,4.40
2023-07-07T17:13:41.356Z,5.40
2023-07-07T17:18:51.804Z,4.10
2023-07-07T17:23:56.176Z,4.20
2023-07-07T17:29:00.596Z,5.60
2023-07-07T17:34:04.316Z,4.50
2023-07-07T17:39:17.997Z,5.20
2023-07-07T17:44:21.386Z,5.90
2023-07-07T17:49:25.077Z,4.10
2023-07-07T17:54:30.477Z,4.60
2023-07-07T17:59:39.027Z,5.10
2023-07-07T18:04:43.368Z,4.50
2023-07-07T18:09:46.875Z,4.80
2023-07-07T18:14:50.202Z,5.00
2023-07-07T18:20:07.563Z,6.10
2023-07-07T18:25:18.434Z,6.90
2023-07-07T18:30:56.880Z,5.90
2023-07-07T18:36:01.081Z,4.90
2023-07-07T18:41:14.353Z,4.50
2023-07-07T18:46:21.656Z,7.10
2023-07-07T18:51:25.071Z,5.30
2023-07-07T18:56:34.296Z,5.70
2023-07-07T19:01:38.252Z,4.40
2023-07-07T19:06:43.459Z,6.30
2023-07-07T19:11:51.541Z,5.50
2023-07-07T19:16:57.146Z,4.00
2023-07-07T19:22:00.596Z,4.10
2023-07-07T19:27:06.211Z,4.80
2023-07-07T19:32:19.410Z,4.50
2023-07-07T19:37:23.906Z,3.90
2023-07-07T19:42:28.310Z,5.80
2023-07-07T19:47:31.583Z,5.20
2023-07-07T19:52:36.580Z,4.10
2023-07-07T19:57:43.161Z,5.30
2023-07-07T20:02:47.001Z,3.40
2023-07-07T20:07:50.521Z,4.30
2023-07-07T20:12:53.885Z,3.50
2023-07-07T20:17:57.863Z,3.60
2023-07-07T20:23:05.753Z,3.40
2023-07-07T20:28:17.447Z,4.70
2023-07-07T20:33:22.972Z,3.60
2023-07-07T20:38:26.488Z,5.00
2023-07-07T20:43:32.360Z,4.00
2023-07-07T20:48:35.659Z,5.40
2023-07-07T20:53:38.956Z,4.90
2023-07-07T20:58:42.762Z,5.30
2023-07-07T21:03:48.061Z,4.10
2023-07-07T21:08:52.761Z,4.80
2023-07-07T21:13:56.244Z,5.00
2023-07-07T21:18:59.938Z,4.90
2023-07-07T21:24:06.122Z,4.60
2023-07-07T21:29:12.665Z,4.40
2023-07-07T21:34:16.223Z,4.60
2023-07-07T21:39:32.636Z,4.70
2023-07-07T21:44:41.728Z,5.70
2023-07-07T21:49:48.098Z,3.80
2023-07-07T21:54:51.789Z,5.20
2023-07-07T21:59:55.123Z,5.20
2023-07-07T22:04:58.634Z,4.50
2023-07-07T22:10:02.095Z,4.40
2023-07-07T22:15:07.086Z,5.60
2023-07-07T22:20:33.783Z,4.90
2023-07-07T22:25:39.236Z,6.30
2023-07-07T22:30:46.836Z,3.00
2023-07-07T22:35:51.444Z,4.80
2023-07-07T22:40:57.233Z,5.10
2023-07-07T22:46:02.737Z,4.50
2023-07-07T22:51:11.800Z,5.40
2023-07-07T22:56:24.207Z,4.80
2023-07-07T23:01:29.601Z,5.10
2023-07-07T23:06:33.241Z,4.50
2023-07-07T23:11:36.579Z,4.20
2023-07-07T23:16:40.159Z,4.80
2023-07-07T23:21:43.802Z,4.70
2023-07-07T23:26:47.250Z,4.40
2023-07-07T23:31:50.560Z,4.10
2023-07-07T23:36:53.910Z,4.30
2023-07-07T23:41:57.257Z,5.50
2023-07-07T23:47:00.605Z,5.30
2023-07-07T23:52:15.509Z,5.80
2023-07-07T23:57:21.580Z,5.30
